createdAt,value
2023-05-20T00:00:50.472Z,102017.94
2023-05-20T00:03:17.408Z,102008.25
2023-05-20T00:05:44.570Z,102006.41
2023-05-20T00:08:11.416Z,102008.16
2023-05-20T00:10:38.671Z,102006.28
2023-05-20T00:13:06.598Z,102009.66
2023-05-20T00:15:34.356Z,102005.28
2023-05-20T00:18:01.752Z,102007.84
2023-05-20T00:20:28.862Z,102012.97
2023-05-20T00:22:55.599Z,102013.84
2023-05-20T00:25:22.425Z,102015.59
2023-05-20T00:27:49.175Z,102012.09
2023-05-20T00:30:15.982Z,102013.81
2023-05-20T00:32:42.681Z,102019.09
2023-05-20T00:35:10.964Z,102013.75
2023-05-20T00:37:38.110Z,102008.34
2023-05-20T00:40:05.806Z,102006.47
2023-05-20T00:42:32.618Z,102005.56
2023-05-20T00:45:00.042Z,102003.69
2023-05-20T00:47:29.298Z,102006.38
2023-05-20T00:49:56.469Z,102007.34
2023-05-20T00:52:23.497Z,102006.38
2023-05-20T00:54:51.174Z,102004.63
2023-05-20T00:57:18.284Z,102002.81
2023-05-20T00:59:45.111Z,102005.47
2023-05-20T01:02:12.001Z,101995.00
2023-05-20T01:04:39.094Z,102001.06
2023-05-20T01:07:06.859Z,102006.38
2023-05-20T01:09:33.639Z,101994.09
2023-05-20T01:12:10.493Z,102002.81
2023-05-20T01:14:44.175Z,101998.34
2023-05-20T01:17:12.666Z,102003.50
2023-05-20T01:19:44.052Z,102006.84
2023-05-20T01:22:12.693Z,101996.31
2023-05-20T01:24:48.554Z,101996.94
2023-05-20T01:27:15.470Z,101996.03
2023-05-20T01:29:42.911Z,101999.53
2023-05-20T01:32:33.195Z,102001.31
2023-05-20T01:35:00.623Z,101997.03
2023-05-20T01:37:27.941Z,101996.06
2023-05-20T01:39:55.009Z,101994.31
2023-05-20T01:42:22.402Z,101995.16
2023-05-20T01:44:49.059Z,101989.19
2023-05-20T01:47:15.868Z,101990.06
2023-05-20T01:49:42.560Z,101991.72
2023-05-20T01:52:09.232Z,101992.56
2023-05-20T01:54:35.888Z,101987.22
2023-05-20T01:57:03.042Z,101993.44
2023-05-20T01:59:29.706Z,101986.31
2023-05-20T02:01:56.455Z,101988.63
2023-05-20T02:04:23.125Z,101987.94
2023-05-20T02:06:49.797Z,101987.78
2023-05-20T02:09:18.649Z,101985.25
2023-05-20T02:11:45.264Z,101988.72
2023-05-20T02:14:12.095Z,101986.00
2023-05-20T02:16:38.820Z,101983.34
2023-05-20T02:19:05.561Z,101979.84
2023-05-20T02:21:32.300Z,101989.38
2023-05-20T02:23:59.049Z,101985.03
2023-05-20T02:26:26.153Z,101997.13
2023-05-20T02:28:52.857Z,101997.19
2023-05-20T02:31:19.531Z,101988.38
2023-05-20T02:33:46.206Z,101989.25
2023-05-20T02:36:12.870Z,101982.16
2023-05-20T02:38:39.872Z,101996.88
2023-05-20T02:41:06.585Z,101995.22
2023-05-20T02:43:36.059Z,101992.59
2023-05-20T02:46:03.317Z,101990.69
2023-05-20T02:48:30.033Z,101993.41
2023-05-20T02:50:57.151Z,101995.28
2023-05-20T02:53:23.899Z,101988.50
2023-05-20T02:55:50.590Z,101991.97
2023-05-20T02:58:17.348Z,101998.78
2023-05-20T03:00:44.076Z,101996.16
2023-05-20T03:03:10.745Z,101992.72
2023-05-20T03:05:38.180Z,101990.34
2023-05-20T03:08:11.071Z,101983.38
2023-05-20T03:10:38.742Z,101986.63
2023-05-20T03:13:10.075Z,101993.44
2023-05-20T03:15:40.139Z,101982.09
2023-05-20T03:18:08.573Z,101996.16
2023-05-20T03:20:38.798Z,101999.69
2023-05-20T03:23:05.909Z,101993.78
2023-05-20T03:25:32.736Z,101988.47
2023-05-20T03:27:59.923Z,101995.72
2023-05-20T03:30:27.437Z,101994.78
2023-05-20T03:32:57.792Z,102002.69
2023-05-20T03:35:25.099Z,101996.66
2023-05-20T03:37:53.237Z,102000.03
2023-05-20T03:40:23.472Z,102003.66
2023-05-20T03:42:53.256Z,102000.28
2023-05-20T03:45:19.943Z,102003.78
2023-05-20T03:47:46.663Z,102009.16
2023-05-20T03:50:13.332Z,102007.44
2023-05-20T03:52:40.968Z,102007.59
2023-05-20T03:55:08.118Z,102008.50
2023-05-20T03:57:36.662Z,102006.00
2023-05-20T04:00:11.315Z,102015.72
2023-05-20T04:02:38.673Z,102014.81
2023-05-20T04:05:06.011Z,102013.19
2023-05-20T04:07:32.786Z,102008.16
2023-05-20T04:09:59.511Z,102016.97
2023-05-20T04:12:30.690Z,102011.88
2023-05-20T04:14:58.682Z,102011.00
2023-05-20T04:17:26.141Z,102004.13
2023-05-20T04:19:53.084Z,102005.22
2023-05-20T04:22:19.748Z,102016.03
2023-05-20T04:24:46.625Z,102021.06
2023-05-20T04:27:13.994Z,102013.44
2023-05-20T04:29:41.618Z,102020.44
2023-05-20T04:32:11.172Z,102014.47
2023-05-20T04:34:38.941Z,102019.06
2023-05-20T04:37:07.817Z,102015.56
2023-05-20T04:39:35.156Z,102015.66
2023-05-20T04:42:03.038Z,102024.53
2023-05-20T04:44:30.020Z,102016.88
2023-05-20T04:47:00.221Z,102012.44
2023-05-20T04:49:27.210Z,102022.31
2023-05-20T04:51:55.590Z,102014.41
2023-05-20T04:54:22.590Z,102018.81
2023-05-20T04:56:49.357Z,102019.69
2023-05-20T04:59:16.071Z,102023.28
2023-05-20T05:01:42.939Z,102012.91
2023-05-20T05:04:09.754Z,102023.34
2023-05-20T05:06:38.670Z,102019.00
2023-05-20T05:09:05.342Z,102019.00
2023-05-20T05:11:32.031Z,102018.19
2023-05-20T05:13:58.692Z,102014.66
2023-05-20T05:16:25.508Z,102018.13
2023-05-20T05:18:52.385Z,102019.00
2023-05-20T05:21:19.020Z,102018.19
2023-05-20T05:23:46.028Z,102014.66
2023-05-20T05:26:12.785Z,102012.97
2023-05-20T05:28:41.823Z,102013.03
2023-05-20T05:31:08.575Z,102016.59
2023-05-20T05:33:35.455Z,102015.66
2023-05-20T05:36:02.795Z,102015.72
2023-05-20T05:38:29.457Z,102006.16
2023-05-20T05:40:59.008Z,102004.34
2023-05-20T05:43:25.632Z,102006.03
2023-05-20T05:45:52.315Z,102002.53
2023-05-20T05:48:18.969Z,101994.63
2023-05-20T05:50:46.486Z,102000.88
2023-05-20T05:53:13.201Z,102009.66
2023-05-20T05:55:40.129Z,102008.78
2023-05-20T05:58:06.812Z,102013.19
2023-05-20T06:00:33.637Z,102007.91
2023-05-20T06:03:00.607Z,102009.72
2023-05-20T06:05:29.271Z,102007.94
2023-05-20T06:07:56.875Z,102007.13
2023-05-20T06:10:25.741Z,102005.41
2023-05-20T06:12:52.561Z,102012.41
2023-05-20T06:15:19.256Z,102005.41
2023-05-20T06:17:46.017Z,102004.59
2023-05-20T06:20:12.913Z,102007.22
2023-05-20T06:22:39.571Z,102004.56
2023-05-20T06:25:06.779Z,102008.13
2023-05-20T06:27:33.583Z,102003.75
2023-05-20T06:30:00.319Z,101994.94
2023-05-20T06:32:27.955Z,102002.84
2023-05-20T06:34:55.659Z,101994.13
2023-05-20T06:37:24.594Z,101997.66
2023-05-20T06:39:54.133Z,101997.66
2023-05-20T06:42:21.642Z,101996.81
2023-05-20T06:44:48.450Z,102002.13
2023-05-20T06:47:16.963Z,101995.94
2023-05-20T06:49:47.181Z,101997.69
2023-05-20T06:52:14.430Z,101995.94
2023-05-20T06:54:41.725Z,101989.78
2023-05-20T06:57:09.279Z,101983.63
2023-05-20T06:59:39.274Z,101988.88
2023-05-20T07:02:06.605Z,101974.78
2023-05-20T07:04:33.546Z,101971.28
2023-05-20T07:07:03.253Z,101963.31
2023-05-20T07:09:33.430Z,101959.78
2023-05-20T07:12:00.892Z,101947.47
2023-05-20T07:14:30.203Z,101949.19
2023-05-20T07:16:57.351Z,101951.81
2023-05-20T07:19:24.229Z,101949.13
2023-05-20T07:21:51.055Z,101950.03
2023-05-20T07:24:18.056Z,101942.94
2023-05-20T07:26:53.706Z,101934.03
2023-05-20T07:29:23.297Z,101923.38
2023-05-20T07:31:50.127Z,101921.59
2023-05-20T07:34:23.821Z,101927.72
2023-05-20T07:36:57.117Z,101931.19
2023-05-20T07:39:26.555Z,101936.44
2023-05-20T07:41:53.224Z,101940.72
2023-05-20T07:44:21.554Z,101950.44
2023-05-20T07:46:49.840Z,101944.28
2023-05-20T07:49:16.651Z,101951.31
2023-05-20T07:51:43.322Z,101948.63
2023-05-20T07:54:09.972Z,101942.50
2023-05-20T07:56:36.653Z,101938.75
2023-05-20T07:59:12.089Z,101934.28
2023-05-20T08:01:42.304Z,101938.69
2023-05-20T08:04:09.084Z,101932.44
2023-05-20T08:06:36.034Z,101933.28
2023-05-20T08:09:04.037Z,101939.44
2023-05-20T08:11:30.714Z,101946.47
2023-05-20T08:13:57.565Z,101941.16
2023-05-20T08:16:24.349Z,101934.97
2023-05-20T08:18:51.233Z,101934.00
2023-05-20T08:21:17.922Z,101935.75
2023-05-20T08:23:44.574Z,101940.06
2023-05-20T08:26:11.800Z,101940.09
2023-05-20T08:28:41.165Z,101925.88
2023-05-20T08:31:07.869Z,101928.34
2023-05-20T08:33:34.714Z,101933.72
2023-05-20T08:36:01.736Z,101942.50
2023-05-20T08:38:28.592Z,101946.97
2023-05-20T08:40:56.517Z,101943.56
2023-05-20T08:43:23.872Z,101945.19
2023-05-20T08:45:52.664Z,101947.63
2023-05-20T08:48:20.335Z,101935.03
2023-05-20T08:50:50.790Z,101932.31
2023-05-20T08:53:19.303Z,101930.41
2023-05-20T08:56:01.391Z,101917.00
2023-05-20T08:58:32.915Z,101929.09
2023-05-20T09:01:00.138Z,101917.50
2023-05-20T09:03:27.220Z,101909.94
2023-05-20T09:06:08.194Z,101912.41
2023-05-20T09:08:35.477Z,101919.34
2023-05-20T09:11:05.024Z,101914.66
2023-05-20T09:13:37.254Z,101916.28
2023-05-20T09:16:04.135Z,101912.00
2023-05-20T09:18:31.473Z,101911.19
2023-05-20T09:20:58.176Z,101921.97
2023-05-20T09:23:28.033Z,101920.19
2023-05-20T09:25:54.697Z,101915.69
2023-05-20T09:28:27.598Z,101906.97
2023-05-20T09:31:00.804Z,101899.88
2023-05-20T09:33:30.180Z,101906.97
2023-05-20T09:36:09.730Z,101910.53
2023-05-20T09:38:39.399Z,101904.16
2023-05-20T09:41:14.058Z,101904.00
2023-05-20T09:43:41.055Z,101894.19
2023-05-20T09:46:08.517Z,101896.88
2023-05-20T09:48:38.686Z,101908.50
2023-05-20T09:51:06.900Z,101893.81
2023-05-20T09:53:33.830Z,101901.28
2023-05-20T09:56:00.569Z,101897.63
2023-05-20T09:58:27.334Z,101911.84
2023-05-20T10:00:54.142Z,101903.69
2023-05-20T10:03:24.988Z,101894.63
2023-05-20T10:06:01.838Z,101893.84
2023-05-20T10:08:41.542Z,101900.19
2023-05-20T10:11:12.784Z,101904.44
2023-05-20T10:13:49.894Z,101900.72
2023-05-20T10:16:41.885Z,101897.59
2023-05-20T10:19:30.320Z,101885.69
2023-05-20T10:22:05.663Z,101884.97
2023-05-20T10:24:38.049Z,101881.88
2023-05-20T10:27:11.569Z,101880.50
2023-05-20T10:32:29.027Z,101875.53
2023-05-20T10:35:09.127Z,101877.16
2023-05-20T10:37:43.682Z,101872.31
2023-05-20T10:40:12.191Z,101873.84
2023-05-20T10:42:39.332Z,101875.38
2023-05-20T10:45:07.279Z,101880.69
2023-05-20T10:47:34.259Z,101881.91
2023-05-20T10:50:05.946Z,101877.72
2023-05-20T10:52:38.823Z,101883.28
2023-05-20T10:55:05.944Z,101864.50
2023-05-20T10:57:34.327Z,101866.81
2023-05-20T11:00:01.312Z,101859.75
2023-05-20T11:02:28.786Z,101868.16
2023-05-20T11:04:59.034Z,101862.00
2023-05-20T11:07:26.928Z,101860.00
2023-05-20T11:09:53.596Z,101852.66
2023-05-20T11:12:21.821Z,101857.09
2023-05-20T11:14:51.697Z,101858.28
2023-05-20T11:17:19.381Z,101854.63
2023-05-20T11:19:47.364Z,101853.00
2023-05-20T11:22:14.079Z,101854.06
2023-05-20T11:24:40.911Z,101857.97
2023-05-20T11:27:07.920Z,101850.16
2023-05-20T11:29:35.344Z,101848.44
2023-05-20T11:32:02.226Z,101857.28
2023-05-20T11:34:36.564Z,101855.41
2023-05-20T11:37:07.336Z,101845.06
2023-05-20T11:39:34.058Z,101855.06
2023-05-20T11:42:00.764Z,101852.75
2023-05-20T11:44:27.479Z,101842.91
2023-05-20T11:47:00.221Z,101841.69
2023-05-20T11:49:26.917Z,101844.66
2023-05-20T11:51:53.577Z,101844.91
2023-05-20T11:54:22.598Z,101843.97
2023-05-20T11:56:49.967Z,101838.13
2023-05-20T11:59:16.662Z,101839.91
2023-05-20T12:01:43.543Z,101835.50
2023-05-20T12:04:10.629Z,101822.53
2023-05-20T12:06:37.657Z,101829.31
2023-05-20T12:09:07.139Z,101818.25
2023-05-20T12:11:37.706Z,101818.91
2023-05-20T12:14:04.419Z,101809.28
2023-05-20T12:16:33.125Z,101815.69
2023-05-20T12:19:00.042Z,101814.56
2023-05-20T12:21:26.995Z,101813.69
2023-05-20T12:23:57.746Z,101817.19
2023-05-20T12:26:25.997Z,101813.22
2023-05-20T12:28:53.021Z,101804.13
2023-05-20T12:31:19.793Z,101809.03
2023-05-20T12:33:46.627Z,101814.28
2023-05-20T12:36:14.246Z,101795.22
2023-05-20T12:38:41.366Z,101807.06
2023-05-20T12:41:08.293Z,101800.13
2023-05-20T12:43:36.926Z,101782.38
2023-05-20T12:46:04.129Z,101788.47
2023-05-20T12:48:30.886Z,101782.28
2023-05-20T12:50:57.526Z,101779.66
2023-05-20T12:53:24.172Z,101781.44
2023-05-20T12:55:50.792Z,101775.56
2023-05-20T12:58:17.428Z,101773.09
2023-05-20T13:00:44.132Z,101764.16
2023-05-20T13:03:11.432Z,101764.22
2023-05-20T13:05:38.323Z,101763.59
2023-05-20T13:08:05.271Z,101756.78
2023-05-20T13:10:32.949Z,101745.59
2023-05-20T13:13:00.134Z,101749.38
2023-05-20T13:15:26.791Z,101742.25
2023-05-20T13:17:54.356Z,101746.13
2023-05-20T13:20:21.552Z,101737.59
2023-05-20T13:22:50.190Z,101737.59
2023-05-20T13:25:16.995Z,101728.28
2023-05-20T13:27:43.990Z,101723.25
2023-05-20T13:30:10.930Z,101715.97
2023-05-20T13:32:37.735Z,101720.81
2023-05-20T13:35:04.705Z,101702.38
2023-05-20T13:37:31.806Z,101707.50
2023-05-20T13:39:58.552Z,101700.19
2023-05-20T13:42:25.191Z,101702.13
2023-05-20T13:44:51.875Z,101699.72
2023-05-20T13:47:18.635Z,101690.31
2023-05-20T13:49:45.333Z,101691.28
2023-05-20T13:52:11.966Z,101691.00
2023-05-20T13:54:38.643Z,101682.78
2023-05-20T13:57:07.899Z,101685.06
2023-05-20T13:59:35.149Z,101688.03
2023-05-20T14:02:02.623Z,101694.19
2023-05-20T14:04:31.227Z,101685.97
2023-05-20T14:06:59.272Z,101670.47
2023-05-20T14:09:26.391Z,101676.66
2023-05-20T14:11:53.260Z,101668.13
2023-05-20T14:14:21.023Z,101661.91
2023-05-20T14:16:47.766Z,101660.03
2023-05-20T14:19:14.485Z,101652.94
2023-05-20T14:21:41.176Z,101673.22
2023-05-20T14:24:07.836Z,101664.25
2023-05-20T14:26:34.708Z,101661.47
2023-05-20T14:29:01.566Z,101658.88
2023-05-20T14:31:28.293Z,101661.47
2023-05-20T14:33:55.104Z,101650.19
2023-05-20T14:36:21.834Z,101648.16
2023-05-20T14:38:49.622Z,101645.69
2023-05-20T14:41:16.704Z,101642.25
2023-05-20T14:43:43.404Z,101637.78
2023-05-20T14:46:10.557Z,101648.53
2023-05-20T14:48:37.345Z,101641.72
2023-05-20T14:51:04.218Z,101640.66
2023-05-20T14:53:31.012Z,101641.75
2023-05-20T14:55:57.670Z,101643.44
2023-05-20T14:58:24.428Z,101643.84
2023-05-20T15:00:53.019Z,101644.09
2023-05-20T15:03:20.438Z,101637.25
2023-05-20T15:05:47.340Z,101634.41
2023-05-20T15:08:14.044Z,101634.19
2023-05-20T15:10:43.498Z,101620.75
2023-05-20T15:13:10.114Z,101620.31
2023-05-20T15:15:36.804Z,101613.91
2023-05-20T15:18:03.819Z,101606.91
2023-05-20T15:20:30.602Z,101602.09
2023-05-20T15:22:58.532Z,101615.50
2023-05-20T15:25:26.479Z,101604.53
2023-05-20T15:27:53.427Z,101596.91
2023-05-20T15:30:20.237Z,101587.72
2023-05-20T15:32:47.268Z,101591.97
2023-05-20T15:35:14.015Z,101588.09
2023-05-20T15:37:40.752Z,101588.34
2023-05-20T15:40:08.546Z,101591.13
2023-05-20T15:42:36.228Z,101586.50
2023-05-20T15:45:02.937Z,101579.72
2023-05-20T15:47:29.918Z,101570.88
2023-05-20T15:49:57.421Z,101578.13
2023-05-20T15:52:24.180Z,101576.00
2023-05-20T15:54:51.073Z,101571.44
2023-05-20T15:57:17.849Z,101568.22
2023-05-20T15:59:44.661Z,101567.72
2023-05-20T16:02:12.061Z,101560.91
2023-05-20T16:04:38.808Z,101556.66
2023-05-20T16:07:05.735Z,101558.47
2023-05-20T16:09:32.370Z,101551.56
2023-05-20T16:11:58.997Z,101558.81
2023-05-20T16:14:25.649Z,101552.56
2023-05-20T16:16:52.271Z,101543.91
2023-05-20T16:19:19.052Z,101549.34
2023-05-20T16:21:46.069Z,101541.53
2023-05-20T16:24:12.833Z,101545.25
2023-05-20T16:26:39.506Z,101531.97
2023-05-20T16:29:06.564Z,101541.50
2023-05-20T16:31:33.365Z,101527.00
2023-05-20T16:34:00.134Z,101536.66
2023-05-20T16:36:26.906Z,101526.69
2023-05-20T16:38:53.518Z,101518.13
2023-05-20T16:41:20.124Z,101518.50
2023-05-20T16:43:46.810Z,101521.78
2023-05-20T16:46:14.525Z,101529.56
2023-05-20T16:48:41.664Z,101521.53
2023-05-20T16:51:08.288Z,101525.38
2023-05-20T16:53:34.963Z,101522.09
2023-05-20T16:56:01.571Z,101525.66
2023-05-20T16:58:28.238Z,101523.13
2023-05-20T17:00:55.297Z,101524.38
2023-05-20T17:03:22.136Z,101519.88
2023-05-20T17:05:48.799Z,101514.66
2023-05-20T17:08:16.500Z,101514.59
2023-05-20T17:10:43.227Z,101520.22
2023-05-20T17:13:09.877Z,101509.75
2023-05-20T17:15:37.286Z,101509.97
2023-05-20T17:18:04.275Z,101511.03
2023-05-20T17:20:31.620Z,101501.41
2023-05-20T17:22:58.801Z,101506.19
2023-05-20T17:25:25.576Z,101504.44
2023-05-20T17:27:52.215Z,101496.78
2023-05-20T17:30:18.871Z,101502.34
2023-05-20T17:32:45.865Z,101496.44
2023-05-20T17:35:12.902Z,101495.69
2023-05-20T17:37:39.681Z,101494.94
2023-05-20T17:40:06.860Z,101492.81
2023-05-20T17:42:34.068Z,101494.28
2023-05-20T17:45:00.881Z,101490.09
2023-05-20T17:47:27.579Z,101494.72
2023-05-20T17:49:54.325Z,101484.69
2023-05-20T17:52:21.028Z,101489.25
2023-05-20T17:54:47.724Z,101480.59
2023-05-20T17:57:14.425Z,101480.50
2023-05-20T17:59:42.047Z,101478.38
2023-05-20T18:02:09.058Z,101473.28
2023-05-20T18:04:35.955Z,101466.13
2023-05-20T18:07:04.066Z,101465.63
2023-05-20T18:09:31.112Z,101465.84
2023-05-20T18:11:57.862Z,101464.63
2023-05-20T18:14:26.519Z,101463.47
2023-05-20T18:16:54.694Z,101463.97
2023-05-20T18:19:21.563Z,101460.59
2023-05-20T18:21:48.570Z,101461.06
2023-05-20T18:24:16.700Z,101464.34
2023-05-20T18:26:43.456Z,101470.50
2023-05-20T18:29:10.067Z,101466.94
2023-05-20T18:31:37.086Z,101461.81
2023-05-20T18:34:03.925Z,101463.66
2023-05-20T18:36:31.510Z,101473.72
2023-05-20T18:38:58.253Z,101474.06
2023-05-20T18:41:32.230Z,101472.06
2023-05-20T18:44:06.015Z,101476.81
2023-05-20T18:46:35.847Z,101478.59
2023-05-20T18:49:02.610Z,101486.06
2023-05-20T18:51:33.084Z,101486.06
2023-05-20T18:54:00.220Z,101487.47
2023-05-20T18:56:27.274Z,101488.19
2023-05-20T18:58:53.978Z,101492.59
2023-05-20T19:01:21.101Z,101489.56
2023-05-20T19:03:47.846Z,101487.72
2023-05-20T19:06:16.480Z,101488.81
2023-05-20T19:08:43.659Z,101488.34
2023-05-20T19:11:10.365Z,101489.56
2023-05-20T19:13:37.077Z,101491.69
2023-05-20T19:16:09.372Z,101491.72
2023-05-20T19:26:41.193Z,101496.28
2023-05-20T19:30:11.705Z,101499.34
2023-05-20T19:38:29.978Z,101501.69
2023-05-20T19:41:11.147Z,101505.66
2023-05-20T19:44:00.966Z,101499.72
2023-05-20T19:58:41.036Z,101512.44
2023-05-20T20:02:11.140Z,101517.09
2023-05-20T20:04:47.806Z,101521.78
2023-05-20T20:07:26.209Z,101520.03
2023-05-20T20:13:48.508Z,101514.38
2023-05-20T20:16:59.752Z,101507.34
2023-05-20T20:20:44.277Z,101506.69
2023-05-20T20:27:23.891Z,101504.56
2023-05-20T20:29:51.326Z,101500.91
2023-05-20T20:32:18.261Z,101504.75
2023-05-20T20:34:45.960Z,101506.59
2023-05-20T20:37:14.938Z,101506.63
2023-05-20T20:39:42.085Z,101504.97
2023-05-20T20:42:08.830Z,101508.72
2023-05-20T20:44:35.684Z,101508.81
2023-05-20T20:47:04.516Z,101506.06
2023-05-20T20:49:32.209Z,101502.72
2023-05-20T20:51:59.072Z,101504.56
2023-05-20T20:54:25.861Z,101501.88
2023-05-20T20:56:52.648Z,101507.25
2023-05-20T20:59:22.020Z,101500.06
2023-05-20T21:01:49.472Z,101498.38
2023-05-20T21:04:17.266Z,101495.66
2023-05-20T21:06:46.182Z,101500.84
2023-05-20T21:09:16.281Z,101499.97
2023-05-20T21:11:45.266Z,101500.66
2023-05-20T21:14:12.783Z,101493.75
2023-05-20T21:16:42.188Z,101494.72
2023-05-20T21:19:09.119Z,101483.06
2023-05-20T21:21:36.182Z,101486.59
2023-05-20T21:24:03.040Z,101485.81
2023-05-20T21:26:35.501Z,101488.50
2023-05-20T21:29:34.200Z,101488.41
2023-05-20T21:35:20.177Z,101477.78
2023-05-20T21:38:10.792Z,101472.47
2023-05-20T21:40:48.517Z,101477.81
2023-05-20T21:43:24.937Z,101477.03
2023-05-20T21:45:56.919Z,101469.91
2023-05-20T21:48:42.562Z,101477.97
2023-05-20T21:51:15.183Z,101472.63
2023-05-20T21:54:03.284Z,101475.28
2023-05-20T21:56:42.669Z,101471.72
2023-05-20T21:59:25.286Z,101469.97
2023-05-20T22:02:02.707Z,101467.28
2023-05-20T22:05:03.082Z,101464.66
2023-05-20T22:07:54.238Z,101465.41
2023-05-20T22:13:58.982Z,101467.31
2023-05-20T22:16:35.900Z,101464.69
2023-05-20T22:19:18.864Z,101463.75
2023-05-20T22:21:51.148Z,101457.44
2023-05-20T22:24:24.224Z,101459.19
2023-05-20T22:26:58.107Z,101455.66
2023-05-20T22:29:28.198Z,101445.06
2023-05-20T22:34:50.213Z,101446.00
2023-05-20T22:37:31.515Z,101445.28
2023-05-20T22:40:02.828Z,101446.94
2023-05-20T22:42:38.613Z,101438.19
2023-05-20T22:45:12.323Z,101434.69
2023-05-20T22:51:03.946Z,101431.16
2023-05-20T23:06:06.424Z,101412.53
2023-05-20T23:08:54.777Z,101412.50
2023-05-20T23:11:24.397Z,101403.91
